Time;durP1;ratioP1;P1;durP2;ratioP2;P2;SDS_P1;SDS_P2;PMS_P1;PMS_P2;Temp;Humidity;BMP_temperature;BMP_pressure;BME280_temperature;BME280_humidity;BME280_pressure;Samples;Min_cycle;Max_cycle;Signal;HPM_P1;HPM_P2
2022/11/01 09:51:55;;;;;;;24.10;16.90;;;15.50;99.90;;;;;;6173030;23;1299053;-86
2022/11/01 09:54:24;;;;;;;19.93;17.50;;;15.50;99.90;;;;;;6249095;23;20240;-86
2022/11/01 09:57:00;;;;;;;24.63;16.93;;;15.30;99.90;;;;;;6249814;23;20737;-86
2022/11/01 09:59:32;;;;;;;19.77;17.20;;;15.60;99.90;;;;;;6228232;23;20815;-86
2022/11/01 10:02:17;;;;;;;20.33;16.90;;;15.90;99.90;;;;;;6220347;23;20386;-85
2022/11/01 10:05:17;;;;;;;23.87;17.87;;;15.20;99.90;;;;;;6227706;23;20453;-87
2022/11/01 10:07:56;;;;;;;21.30;16.77;;;15.50;99.90;;;;;;6227481;23;20406;-85
2022/11/01 10:10:36;;;;;;;21.30;16.63;;;15.50;99.90;;;;;;6220756;23;20406;-86
2022/11/01 10:13:14;;;;;;;25.20;16.73;;;15.50;99.90;;;;;;6220367;23;20402;-85
2022/11/01 10:15:52;;;;;;;16.97;15.17;;;15.60;99.90;;;;;;6224542;23;20437;-85
2022/11/01 10:18:30;;;;;;;22.20;16.43;;;15.30;99.90;;;;;;6226505;23;20418;-85
2022/11/01 10:20:58;;;;;;;19.97;16.00;;;15.80;99.90;;;;;;6222219;23;20415;-85
2022/11/01 10:23:35;;;;;;;26.03;15.90;;;15.80;99.90;;;;;;6221615;23;20442;-85
2022/11/01 10:26:04;;;;;;;20.43;16.33;;;15.30;99.90;;;;;;6228760;23;20477;-85
2022/11/01 10:28:40;;;;;;;19.37;14.20;;;15.50;99.90;;;;;;6227475;23;20434;-85
2022/11/01 10:31:15;;;;;;;22.50;15.27;;;15.90;99.90;;;;;;6228566;23;20406;-85
2022/11/01 10:33:47;;;;;;;19.00;16.17;;;15.60;99.90;;;;;;6230043;23;20357;-85
2022/11/01 10:36:18;;;;;;;19.43;17.10;;;15.70;99.90;;;;;;6231424;23;20873;-85
2022/11/01 10:38:48;;;;;;;26.67;17.80;;;15.80;99.90;;;;;;6220728;23;20529;-85
2022/11/01 10:41:22;;;;;;;24.43;16.43;;;15.90;99.90;;;;;;6225954;23;20405;-84
2022/11/01 10:43:52;;;;;;;16.20;14.00;;;15.90;99.90;;;;;;6236667;23;20444;-85
2022/11/01 10:46:22;;;;;;;17.47;14.80;;;15.90;99.90;;;;;;6221372;23;20418;-84
2022/11/01 10:48:52;;;;;;;17.03;13.40;;;16.20;99.90;;;;;;6220847;23;20430;-84
2022/11/01 10:54:15;;;;;;;17.27;13.70;;;15.80;99.90;;;;;;6200369;23;20386;-85
2022/11/01 10:56:56;;;;;;;18.07;14.53;;;15.70;99.90;;;;;;6222759;23;20465;-85
2022/11/01 10:59:28;;;;;;;18.27;14.23;;;16.40;99.90;;;;;;6222536;23;20436;-85
2022/11/01 11:01:55;;;;;;;17.43;13.23;;;15.70;99.90;;;;;;6234808;23;20757;-84
2022/11/01 11:04:25;;;;;;;16.70;13.00;;;15.60;99.90;;;;;;6238560;23;20496;-85
2022/11/01 11:06:52;;;;;;;16.30;13.00;;;16.50;99.90;;;;;;6233861;23;20912;-85
2022/11/01 11:09:25;;;;;;;15.30;12.20;;;16.90;99.90;;;;;;6225018;23;20488;-85
2022/11/01 11:11:56;;;;;;;14.67;12.80;;;16.50;99.90;;;;;;6223910;23;20410;-85
2022/11/01 11:14:26;;;;;;;16.37;11.87;;;16.40;99.90;;;;;;6221756;23;20426;-85
2022/11/01 11:16:56;;;;;;;14.10;10.60;;;16.40;99.90;;;;;;6221407;23;20930;-85
2022/11/01 11:19:32;;;;;;;15.60;11.43;;;17.00;99.90;;;;;;6220884;23;20480;-85
2022/11/01 11:22:01;;;;;;;16.17;12.30;;;17.30;99.90;;;;;;6225642;23;20414;-85
2022/11/01 11:24:35;;;;;;;13.40;10.90;;;17.70;99.90;;;;;;6226054;23;20442;-85
2022/11/01 11:27:03;;;;;;;12.33;10.07;;;17.30;99.90;;;;;;6222134;23;20418;-85
2022/11/01 11:29:40;;;;;;;13.60;9.33;;;17.20;99.90;;;;;;6221249;23;20434;-86
2022/11/01 11:32:14;;;;;;;15.20;9.67;;;17.10;99.90;;;;;;6225371;23;20407;-85
2022/11/01 11:34:42;;;;;;;12.83;11.37;;;;;;;;;;6223514;23;20410;-84
2022/11/01 11:37:18;;;;;;;19.93;10.10;;;17.10;99.90;;;;;;6220403;23;20410;-85
2022/11/01 11:40:02;;;;;;;12.60;10.50;;;17.50;99.90;;;;;;6220715;23;20501;-85
2022/11/01 11:42:31;;;;;;;16.10;11.77;;;16.80;99.90;;;;;;6222801;23;20414;-85
2022/11/01 11:45:21;;;;;;;14.63;10.60;;;16.70;99.90;;;;;;6227572;23;20422;-84
2022/11/01 11:47:48;;;;;;;17.10;11.20;;;17.30;99.90;;;;;;6243366;23;20403;-84
2022/11/01 11:50:33;;;;;;;14.60;11.27;;;17.00;99.90;;;;;;6242756;23;20402;-84
2022/11/01 11:53:05;;;;;;;30.40;16.67;;;16.80;99.90;;;;;;6229042;23;20410;-86
2022/11/01 11:55:43;;;;;;;24.97;21.03;;;16.50;99.90;;;;;;6222495;23;20478;-85
2022/11/01 11:58:18;;;;;;;17.43;15.60;;;16.90;99.90;;;;;;6223768;23;20925;-85
2022/11/01 12:00:49;;;;;;;16.53;13.13;;;17.20;99.90;;;;;;6221898;23;20406;-84
2022/11/01 12:03:16;;;;;;;14.70;12.17;;;;;;;;;;6223387;23;20434;-84
2022/11/01 12:05:53;;;;;;;10.03;8.73;;;16.50;99.90;;;;;;6234310;23;20422;-84
2022/11/01 12:08:43;;;;;;;10.13;7.57;;;17.20;99.90;;;;;;6241689;23;20449;-85
2022/11/01 12:11:12;;;;;;;12.30;9.00;;;17.10;99.90;;;;;;6243371;23;20390;-85
2022/11/01 12:13:41;;;;;;;16.13;9.77;;;16.70;99.90;;;;;;6243804;23;20489;-84
2022/11/01 12:16:23;;;;;;;12.43;10.10;;;16.70;99.90;;;;;;6243732;23;20384;-85
2022/11/01 12:18:55;;;;;;;12.13;9.10;;;16.70;99.90;;;;;;6241051;23;20406;-84
2022/11/01 12:21:26;;;;;;;13.37;9.80;;;16.50;99.90;;;;;;6237989;23;20399;-85
2022/11/01 12:23:58;;;;;;;12.57;9.07;;;16.70;99.90;;;;;;6235386;23;20434;-85
2022/11/01 12:26:28;;;;;;;15.40;9.20;;;17.00;99.90;;;;;;6222767;23;20449;-85
2022/11/01 12:29:05;;;;;;;11.40;10.00;;;16.30;99.90;;;;;;6222870;23;20430;-85
2022/11/01 12:31:32;;;;;;;10.70;8.53;;;;;;;;;;6221080;23;20444;-85
2022/11/01 12:34:06;;;;;;;12.70;9.47;;;16.10;99.90;;;;;;6221319;23;20756;-85
2022/11/01 12:36:42;;;;;;;11.83;9.20;;;16.90;99.90;;;;;;6219494;23;20410;-85
2022/11/01 12:39:25;;;;;;;15.43;10.47;;;16.40;99.90;;;;;;6219727;23;20509;-85
2022/11/01 12:41:59;;;;;;;13.60;10.50;;;16.90;99.90;;;;;;6219453;23;20407;-85
2022/11/01 12:44:38;;;;;;;16.83;11.10;;;16.40;99.90;;;;;;6218819;23;20501;-85
2022/11/01 12:47:11;;;;;;;15.30;11.57;;;16.20;99.90;;;;;;6224452;23;20438;-86
2022/11/01 12:49:47;;;;;;;17.43;11.43;;;16.40;99.90;;;;;;6219957;23;20465;-85
2022/11/01 12:52:19;;;;;;;15.50;11.70;;;16.40;99.90;;;;;;6220830;23;20432;-85
2022/11/01 12:54:53;;;;;;;14.87;10.03;;;16.40;99.90;;;;;;6220375;23;20414;-86
2022/11/01 12:57:23;;;;;;;13.13;9.30;;;16.60;99.90;;;;;;6220239;23;20417;-86
2022/11/01 12:59:51;;;;;;;17.10;11.30;;;16.40;99.90;;;;;;6220941;23;20434;-85
2022/11/01 13:02:43;;;;;;;16.27;12.10;;;16.40;99.90;;;;;;6219583;23;20414;-85
2022/11/01 13:05:16;;;;;;;11.37;9.00;;;16.60;99.90;;;;;;6219426;23;20492;-85
2022/11/01 13:29:16;;;;;;;13.13;10.50;;;16.90;99.90;;;;;;5908161;24;20493;-87
2022/11/01 13:35:56;;;;;;;14.00;10.53;;;17.00;99.90;;;;;;6091653;23;20456;-85
2022/11/01 13:39:02;;;;;;;18.53;10.83;;;17.00;99.90;;;;;;6020586;23;20516;-86
2022/11/01 13:41:41;;;;;;;12.33;9.50;;;;;;;;;;6153640;23;20416;-86
2022/11/01 13:44:13;;;;;;;16.83;10.60;;;16.80;99.90;;;;;;6198243;23;20961;-86
2022/11/01 13:47:15;;;;;;;10.67;9.30;;;16.80;99.90;;;;;;6198054;23;20399;-86
2022/11/01 13:50:20;;;;;;;10.20;9.10;;;16.70;99.90;;;;;;6198386;23;20439;-87
2022/11/01 13:53:04;;;;;;;13.43;8.20;;;16.70;99.90;;;;;;6189066;23;20435;-86
2022/11/01 13:58:33;;;;;;;10.93;9.70;;;;;;;;;;6194444;23;20407;-86
2022/11/01 14:01:30;;;;;;;18.10;9.93;;;16.50;99.90;;;;;;6199341;23;20394;-87
2022/11/01 14:04:46;;;;;;;15.00;11.37;;;16.60;99.90;;;;;;6199629;23;20371;-86
2022/11/01 14:07:22;;;;;;;15.47;13.03;;;;;;;;;;6196614;23;20408;-87
2022/11/01 14:12:47;;;;;;;16.13;11.73;;;;;;;;;;6194319;23;20418;-85
2022/11/01 14:15:30;;;;;;;12.80;10.00;;;16.50;99.90;;;;;;6198064;23;20399;-86
2022/11/01 14:18:15;;;;;;;19.63;10.40;;;;;;;;;;6197153;23;20442;-87
2022/11/01 14:20:54;;;;;;;9.80;8.80;;;16.40;99.90;;;;;;6196534;23;20438;-86
2022/11/01 14:27:28;;;;;;;11.87;9.40;;;16.50;99.90;;;;;;6183091;23;20392;-86
2022/11/01 14:30:57;;;;;;;11.63;9.27;;;16.50;99.90;;;;;;6199577;23;20461;-86
2022/11/01 14:33:29;;;;;;;10.90;8.70;;;;;;;;;;6108243;23;20401;-86
2022/11/01 14:36:09;;;;;;;11.73;8.87;;;;;;;;;;6142733;23;20511;-86
2022/11/01 14:39:03;;;;;;;;;;;;;;;;;;;;;
2022/11/01 14:41:44;;;;;;;15.30;8.10;;;;;;;;;;6199979;23;20876;-85
2022/11/01 14:47:50;;;;;;;11.33;8.50;;;16.60;99.90;;;;;;6101380;23;20760;-86
2022/11/01 14:50:49;;;;;;;;;;;;;;;;;;;;;
2022/11/01 14:53:41;;;;;;;10.90;7.60;;;16.60;99.90;;;;;;6196487;23;20703;-86
2022/11/01 14:59:23;;;;;;;15.37;9.97;;;;;;;;;;6154465;23;20443;-86
2022/11/01 15:01:55;;;;;;;14.20;9.47;;;16.50;99.90;;;;;;6197304;23;20747;-85
2022/11/01 15:04:29;;;;;;;10.90;8.47;;;16.40;99.90;;;;;;6199618;23;20439;-86
2022/11/01 15:07:04;;;;;;;12.63;8.50;;;;;;;;;;6199065;23;20409;-86
2022/11/01 15:09:39;;;;;;;9.73;8.80;;;;;;;;;;6194183;23;20423;-86
2022/11/01 15:12:19;;;;;;;15.17;11.37;;;;;;;;;;6198834;23;20489;-87
2022/11/01 15:14:55;;;;;;;14.60;11.03;;;;;;;;;;6200101;23;20407;-86
2022/11/01 15:17:32;;;;;;;14.90;11.13;;;16.20;99.90;;;;;;6199365;23;20806;-86
2022/11/01 15:20:18;;;;;;;13.40;10.83;;;16.10;99.90;;;;;;6198970;23;20438;-87
2022/11/01 15:29:24;;;;;;;11.23;9.83;;;;;;;;;;6113406;23;20431;-86
2022/11/01 15:32:25;;;;;;;15.00;9.83;;;15.90;99.90;;;;;;6199709;23;20403;-86
2022/11/01 15:34:57;;;;;;;11.27;9.10;;;;;;;;;;6197957;23;20402;-86
2022/11/01 15:37:32;;;;;;;11.57;9.80;;;;;;;;;;6204166;23;20527;-86
2022/11/01 15:40:39;;;;;;;13.03;9.30;;;;;;;;;;6208965;23;20427;-88
2022/11/01 15:43:23;;;;;;;13.90;10.43;;;15.70;99.90;;;;;;6199446;23;20464;-87
2022/11/01 15:46:13;;;;;;;12.87;10.13;;;15.60;99.90;;;;;;6198002;23;20431;-87
2022/11/01 15:52:51;;;;;;;14.27;10.43;;;15.60;99.90;;;;;;6063405;23;20397;-83
2022/11/01 15:55:28;;;;;;;17.13;10.40;;;15.50;99.90;;;;;;6064606;23;20418;-87
2022/11/01 16:30:35;;;;;;;31.37;17.90;;;15.00;99.90;;;;;;6176024;22;20523;-87
2022/11/01 16:33:17;;;;;;;18.90;16.33;;;15.30;99.90;;;;;;6195735;23;20740;-85
2022/11/01 16:35:46;;;;;;;21.80;15.73;;;15.00;99.90;;;;;;6197328;23;20387;-86
2022/11/01 16:38:28;;;;;;;24.23;16.77;;;15.00;99.90;;;;;;6197674;23;20530;-88
2022/11/01 16:40:57;;;;;;;19.43;16.00;;;14.90;99.90;;;;;;6196710;23;20400;-85
2022/11/01 16:43:25;;;;;;;21.27;16.10;;;14.90;99.90;;;;;;6195806;23;20685;-86
2022/11/01 16:45:54;;;;;;;21.20;14.50;;;14.80;99.90;;;;;;6194678;23;20446;-84
2022/11/01 16:48:25;;;;;;;22.77;15.23;;;14.70;99.90;;;;;;6195677;23;20414;-87
2022/11/01 16:50:54;;;;;;;22.40;13.40;;;14.30;99.90;;;;;;6213043;23;20443;-85
2022/11/01 16:53:21;;;;;;;16.85;13.45;;;;;;;;;;6213535;23;20415;-86
2022/11/01 16:55:48;;;;;;;20.90;15.10;;;14.70;99.90;;;;;;6213646;23;20196;-85
2022/11/01 16:58:17;;;;;;;18.37;15.40;;;14.90;99.90;;;;;;6207982;23;20486;-86
2022/11/01 17:00:53;;;;;;;20.93;15.13;;;14.70;99.90;;;;;;6203139;23;20403;-86
2022/11/01 17:03:20;;;;;;;26.37;19.13;;;;;;;;;;6201351;23;20405;-84
2022/11/01 17:05:48;;;;;;;23.10;17.53;;;14.80;99.90;;;;;;6200584;23;20417;-86
2022/11/01 17:08:21;;;;;;;27.70;19.27;;;14.40;99.90;;;;;;6200551;23;20772;-86
2022/11/01 17:10:48;;;;;;;23.30;16.30;;;14.60;99.90;;;;;;6199087;23;20388;-87
2022/11/01 17:13:15;;;;;;;21.70;15.70;;;14.50;99.90;;;;;;6200291;23;20407;-88
2022/11/01 17:15:51;;;;;;;25.20;18.30;;;14.50;99.90;;;;;;6197346;23;20439;-88
2022/11/01 17:18:29;;;;;;;30.13;21.37;;;14.10;99.90;;;;;;6200391;23;20395;-87
2022/11/01 17:20:58;;;;;;;37.47;24.23;;;14.50;99.90;;;;;;6204384;23;20775;-87
2022/11/01 17:23:27;;;;;;;34.47;23.50;;;14.80;99.90;;;;;;6202560;23;20403;-88
2022/11/01 17:25:55;;;;;;;45.13;29.50;;;14.50;99.90;;;;;;6208920;23;20400;-88
2022/11/01 17:28:23;;;;;;;43.80;30.80;;;14.20;99.90;;;;;;6213383;23;20411;-88
2022/11/01 17:30:50;;;;;;;40.63;27.23;;;14.60;99.90;;;;;;6213301;23;20387;-87
2022/11/01 17:33:19;;;;;;;33.37;25.10;;;14.10;99.90;;;;;;6198617;23;20407;-87
2022/11/01 17:35:46;;;;;;;35.87;23.37;;;;;;;;;;6206910;23;20450;-87
2022/11/01 17:38:17;;;;;;;30.63;20.17;;;14.40;99.90;;;;;;6208607;23;20403;-88
2022/11/01 17:40:45;;;;;;;28.40;20.13;;;14.00;99.90;;;;;;6204555;23;20396;-88
2022/11/01 17:43:16;;;;;;;28.00;18.70;;;14.50;99.90;;;;;;6192650;23;20462;-87
2022/11/01 17:45:43;;;;;;;23.63;17.40;;;14.40;99.90;;;;;;6193553;23;20384;-88
2022/11/01 17:48:10;;;;;;;28.20;17.83;;;14.20;99.90;;;;;;6192851;23;20404;-89
2022/11/01 17:50:38;;;;;;;17.43;14.13;;;14.30;99.90;;;;;;6195284;23;20731;-88
2022/11/01 17:53:06;;;;;;;22.30;16.13;;;14.00;99.90;;;;;;6195783;23;20407;-87
2022/11/01 17:55:34;;;;;;;23.17;16.20;;;14.50;99.90;;;;;;6197037;23;20438;-87
2022/11/01 17:58:01;;;;;;;20.40;15.00;;;14.30;99.90;;;;;;6204233;23;20415;-87
2022/11/01 18:00:34;;;;;;;18.07;13.90;;;14.10;99.90;;;;;;6204984;23;20561;-87
2022/11/01 18:03:01;;;;;;;21.00;15.23;;;13.90;99.90;;;;;;6203236;23;20399;-88
2022/11/01 18:05:28;;;;;;;27.27;21.07;;;;;;;;;;6200538;23;20407;-88
2022/11/01 18:07:56;;;;;;;20.13;13.70;;;14.40;99.90;;;;;;6207601;23;20474;-87
2022/11/01 18:10:35;;;;;;;24.47;17.70;;;14.20;99.90;;;;;;6209774;23;20435;-88
2022/11/01 18:13:18;;;;;;;18.43;13.90;;;13.50;99.90;;;;;;6207343;23;20394;-88
2022/11/01 18:15:50;;;;;;;21.50;15.30;;;13.30;99.90;;;;;;6198891;23;20431;-88
2022/11/01 18:18:29;;;;;;;20.43;14.53;;;14.20;99.90;;;;;;6197688;23;20411;-87
2022/11/01 18:21:08;;;;;;;17.17;13.60;;;13.70;99.90;;;;;;6196623;23;20402;-88
2022/11/01 18:23:38;;;;;;;19.27;15.70;;;13.80;99.90;;;;;;6199109;23;20398;-88
2022/11/01 18:26:10;;;;;;;16.87;15.03;;;13.80;99.90;;;;;;6197613;23;20388;-87
2022/11/01 18:28:37;;;;;;;16.70;14.30;;;13.50;99.90;;;;;;6197832;23;20446;-87
2022/11/01 18:31:13;;;;;;;18.43;13.83;;;13.40;99.90;;;;;;6197748;23;20403;-88
2022/11/01 18:33:47;;;;;;;21.33;15.30;;;13.60;99.90;;;;;;6198712;23;20413;-87
2022/11/01 18:36:20;;;;;;;18.43;15.03;;;13.70;99.90;;;;;;6197868;23;20441;-88
2022/11/01 18:38:55;;;;;;;17.07;15.33;;;13.60;99.90;;;;;;6196802;23;20427;-88
2022/11/01 18:41:22;;;;;;;19.80;14.93;;;13.80;99.90;;;;;;6197415;23;20398;-88
2022/11/01 18:43:52;;;;;;;21.63;15.43;;;13.40;99.90;;;;;;6198156;23;20419;-88
2022/11/01 18:46:21;;;;;;;23.80;16.00;;;13.80;99.90;;;;;;6198881;23;20430;-88
2022/11/01 18:48:48;;;;;;;19.00;15.10;;;;;;;;;;6198772;23;20438;-87
2022/11/01 18:51:21;;;;;;;27.02;17.27;;;13.50;99.90;;;;;;6211022;23;20410;-87
2022/11/01 18:53:54;;;;;;;22.20;16.50;;;13.40;99.90;;;;;;6215363;23;20164;-87
2022/11/01 18:56:23;;;;;;;23.10;16.60;;;13.90;99.90;;;;;;6206188;23;20423;-88
2022/11/01 18:58:51;;;;;;;21.03;14.83;;;13.50;99.90;;;;;;6214008;23;20423;-88
2022/11/01 19:01:19;;;;;;;23.70;15.20;;;13.20;99.90;;;;;;6209275;23;20435;-87
2022/11/01 19:03:47;;;;;;;16.53;14.20;;;13.20;99.90;;;;;;6199439;23;20403;-88
2022/11/01 19:06:19;;;;;;;22.75;15.43;;;13.10;99.90;;;;;;6198309;23;20424;-88
2022/11/01 19:08:54;;;;;;;16.57;14.57;;;12.90;99.90;;;;;;6210838;23;20198;-88
2022/11/01 19:11:22;;;;;;;20.33;15.90;;;;;;;;;;6207634;23;20395;-87
2022/11/01 19:13:50;;;;;;;37.10;23.07;;;13.50;99.90;;;;;;6200422;23;20419;-88
2022/11/01 19:16:33;;;;;;;41.50;26.33;;;13.10;99.90;;;;;;6196872;23;20414;-88
2022/11/01 19:19:00;;;;;;;44.20;28.67;;;;;;;;;;6196872;23;20431;-88
2022/11/01 19:21:30;;;;;;;41.40;29.00;;;12.80;99.90;;;;;;6195571;23;20415;-89
2022/11/01 19:24:04;;;;;;;39.67;28.50;;;13.10;99.90;;;;;;6195514;23;20416;-88
2022/11/01 19:26:35;;;;;;;39.67;26.90;;;13.10;99.90;;;;;;6193531;23;20402;-89
2022/11/01 19:29:10;;;;;;;39.73;25.77;;;12.80;99.90;;;;;;6193575;23;20453;-89
2022/11/01 19:31:38;;;;;;;32.80;22.17;;;13.30;99.90;;;;;;6193576;23;20414;-89
2022/11/01 19:34:12;;;;;;;27.67;22.20;;;13.40;99.90;;;;;;6196146;23;20919;-88
2022/11/01 19:36:42;;;;;;;26.87;20.00;;;12.90;99.90;;;;;;6197666;23;20522;-88
2022/11/01 19:39:22;;;;;;;22.17;18.90;;;12.90;99.90;;;;;;6197876;23;20435;-88
2022/11/01 19:41:49;;;;;;;24.23;17.40;;;12.70;99.90;;;;;;6197937;23;20415;-88
2022/11/01 19:44:21;;;;;;;19.30;16.50;;;12.70;99.90;;;;;;6196447;23;20407;-88
2022/11/01 19:46:51;;;;;;;25.73;16.27;;;12.60;99.90;;;;;;6195401;23;20411;-88
2022/11/01 19:49:24;;;;;;;17.37;14.70;;;12.80;99.90;;;;;;6194105;23;20427;-88
2022/11/01 19:52:12;;;;;;;21.37;16.50;;;12.80;99.90;;;;;;6200833;23;20895;-87
2022/11/01 19:54:44;;;;;;;29.97;18.50;;;12.80;99.90;;;;;;6199981;23;20387;-88
2022/11/01 19:57:21;;;;;;;24.53;18.30;;;12.70;99.90;;;;;;6196325;23;20904;-88
2022/11/01 19:59:48;;;;;;;28.40;19.80;;;;;;;;;;6195882;23;20427;-89
2022/11/01 20:02:19;;;;;;;30.83;21.07;;;12.90;99.90;;;;;;6196275;23;20438;-89
2022/11/01 20:04:46;;;;;;;26.33;19.40;;;;;;;;;;6195807;23;20387;-89
2022/11/01 20:07:16;;;;;;;27.40;21.03;;;12.90;99.90;;;;;;6194939;23;20386;-89
2022/11/01 20:09:44;;;;;;;33.93;23.47;;;12.90;99.90;;;;;;6194712;23;20441;-88
2022/11/01 20:12:11;;;;;;;31.23;22.87;;;;;;;;;;6195494;23;20407;-88
2022/11/01 20:14:38;;;;;;;31.00;23.13;;;13.00;99.90;;;;;;6195558;23;20414;-88
2022/11/01 20:17:05;;;;;;;26.10;19.27;;;13.00;99.90;;;;;;6197690;23;20475;-88
2022/11/01 20:19:32;;;;;;;24.50;18.40;;;13.20;99.90;;;;;;6199480;23;20431;-88
2022/11/01 20:21:59;;;;;;;25.93;18.83;;;12.60;99.90;;;;;;6208222;23;20414;-88
2022/11/01 20:24:26;;;;;;;28.30;20.13;;;14.70;99.90;;;;;;6199026;23;20411;-89
2022/11/01 20:26:54;;;;;;;32.40;21.57;;;12.60;99.90;;;;;;6198033;23;20437;-88
2022/11/01 20:29:22;;;;;;;29.30;22.27;;;;;;;;;;6196423;23;20435;-88
2022/11/01 20:31:49;;;;;;;39.23;27.40;;;;;;;;;;6205331;23;20503;-88
2022/11/01 20:34:16;;;;;;;21.33;17.67;;;12.60;99.90;;;;;;6195083;23;20432;-89
2022/11/01 20:36:44;;;;;;;22.00;17.17;;;12.50;99.90;;;;;;6195354;23;20443;-89
2022/11/01 20:39:11;;;;;;;18.10;16.13;;;12.40;99.90;;;;;;6201904;23;20431;-88
2022/11/01 20:41:38;;;;;;;19.43;16.20;;;12.10;99.90;;;;;;6213097;23;20471;-89
2022/11/01 20:44:06;;;;;;;20.80;17.17;;;12.40;99.90;;;;;;6199787;23;20471;-88
2022/11/01 20:46:35;;;;;;;20.77;17.37;;;12.50;99.90;;;;;;6199376;23;20474;-88
2022/11/01 20:49:02;;;;;;;21.77;17.13;;;12.30;99.90;;;;;;6213802;23;20411;-84
2022/11/01 20:51:29;;;;;;;28.77;24.10;;;;;;;;;;6214270;23;20398;-86
2022/11/01 20:53:57;;;;;;;35.90;25.27;;;12.20;99.90;;;;;;6214253;23;20483;-86
2022/11/01 20:56:24;;;;;;;33.80;22.73;;;;;;;;;;6212611;23;20447;-87
2022/11/01 20:58:52;;;;;;;29.90;20.87;;;12.30;99.90;;;;;;6210663;23;20463;-88
2022/11/01 21:01:22;;;;;;;22.90;18.20;;;;;;;;;;6213152;23;20422;-88
2022/11/01 21:03:51;;;;;;;28.83;17.80;;;12.70;99.90;;;;;;6212010;23;20414;-88
2022/11/01 21:06:21;;;;;;;28.97;21.03;;;;;;;;;;6211541;23;20399;-88
2022/11/01 21:08:49;;;;;;;42.17;25.33;;;12.30;99.90;;;;;;6206416;23;20427;-88
2022/11/01 21:11:24;;;;;;;45.57;29.77;;;12.40;99.90;;;;;;6202475;23;20411;-88
2022/11/01 21:13:51;;;;;;;32.37;22.13;;;12.70;99.90;;;;;;6193030;23;20426;-89
2022/11/01 21:16:23;;;;;;;29.23;22.20;;;12.30;99.90;;;;;;6192938;23;20443;-89
2022/11/01 21:18:53;;;;;;;24.80;19.43;;;12.70;99.90;;;;;;6192573;23;20424;-88
2022/11/01 21:21:37;;;;;;;20.57;17.70;;;12.10;99.90;;;;;;6192645;23;20743;-88
2022/11/01 21:24:29;;;;;;;23.87;17.00;;;12.30;99.90;;;;;;6193478;23;20427;-88
2022/11/01 21:27:10;;;;;;;18.73;15.30;;;11.70;99.90;;;;;;6178239;23;20403;-88
2022/11/01 21:29:41;;;;;;;21.70;14.27;;;12.20;99.90;;;;;;6193486;23;20435;-87
2022/11/01 21:32:28;;;;;;;21.13;14.40;;;12.30;99.90;;;;;;6195258;23;20578;-88
2022/11/01 21:34:56;;;;;;;20.57;15.23;;;;;;;;;;6190991;23;20494;-89
2022/11/01 21:37:27;;;;;;;24.90;15.07;;;12.30;99.90;;;;;;6192528;23;20502;-89
2022/11/01 21:39:58;;;;;;;19.53;16.17;;;12.20;99.90;;;;;;6194101;23;20423;-88
2022/11/01 21:42:31;;;;;;;22.93;15.80;;;12.10;99.90;;;;;;6193588;23;20791;-89
2022/11/01 21:44:58;;;;;;;20.87;14.90;;;11.70;99.90;;;;;;6195191;23;20407;-88
2022/11/01 21:47:29;;;;;;;17.80;13.87;;;12.00;99.90;;;;;;6196185;23;20468;-88
2022/11/01 21:49:56;;;;;;;20.17;14.90;;;11.70;99.90;;;;;;6194275;23;20435;-90
2022/11/01 21:52:24;;;;;;;18.60;14.63;;;11.60;99.90;;;;;;6193941;23;20485;-89
2022/11/01 21:54:51;;;;;;;17.80;13.50;;;11.90;99.90;;;;;;6191945;23;20828;-89
2022/11/01 21:57:18;;;;;;;19.47;15.83;;;11.60;99.90;;;;;;6192817;23;20448;-89
2022/11/01 21:59:45;;;;;;;18.10;14.97;;;12.00;99.90;;;;;;6193095;23;20407;-89
2022/11/01 22:02:13;;;;;;;19.80;16.10;;;12.20;99.90;;;;;;6192259;23;20378;-88
2022/11/01 22:04:42;;;;;;;19.20;15.50;;;12.00;99.90;;;;;;6191377;23;20732;-88
2022/11/01 22:07:10;;;;;;;17.57;14.67;;;11.80;99.90;;;;;;6191470;23;20408;-89
2022/11/01 22:09:37;;;;;;;20.10;14.23;;;;;;;;;;6209509;23;20436;-88
2022/11/01 22:12:05;;;;;;;17.00;13.20;;;12.20;99.90;;;;;;6213289;23;20414;-89
2022/11/01 22:14:32;;;;;;;17.10;14.90;;;;;;;;;;6201445;23;20524;-89
2022/11/01 22:16:59;;;;;;;20.67;15.40;;;11.60;99.90;;;;;;6206896;23;20442;-88
2022/11/01 22:19:26;;;;;;;20.33;16.40;;;12.00;99.90;;;;;;6197489;23;20435;-89
2022/11/01 22:21:54;;;;;;;17.63;14.50;;;11.80;99.90;;;;;;6192594;23;20949;-89
2022/11/01 22:24:23;;;;;;;15.73;12.90;;;11.70;99.90;;;;;;6199303;23;20414;-89
2022/11/01 22:26:50;;;;;;;14.87;12.20;;;;;;;;;;6192834;23;20400;-89
2022/11/01 22:33:32;;;;;;;14.20;11.03;;;11.80;99.90;;;;;;6202383;23;20414;-91
2022/11/01 23:36:30;;;;;;;15.40;11.40;;;11.20;99.90;;;;;;6196190;22;20449;-88
2022/11/01 23:38:59;;;;;;;12.57;11.00;;;11.30;99.90;;;;;;6223801;23;20387;-89
2022/11/01 23:41:29;;;;;;;17.47;11.47;;;10.90;99.90;;;;;;6224564;23;20402;-89
2022/11/01 23:43:59;;;;;;;18.00;10.80;;;10.80;99.90;;;;;;6223482;23;20387;-88
2022/11/01 23:46:26;;;;;;;11.40;10.20;;;11.20;99.90;;;;;;6226143;23;20999;-88
2022/11/01 23:48:59;;;;;;;11.20;9.70;;;10.80;99.90;;;;;;6234553;23;20912;-89
2022/11/01 23:51:28;;;;;;;12.13;9.47;;;11.00;99.90;;;;;;6228003;23;20379;-89
2022/11/01 23:53:57;;;;;;;13.70;10.13;;;11.00;99.90;;;;;;6222810;23;20823;-89
2022/11/01 23:56:23;;;;;;;17.47;12.07;;;11.00;99.90;;;;;;6221230;23;20433;-89
2022/11/01 23:58:54;;;;;;;18.13;12.10;;;11.30;99.90;;;;;;6221234;23;20407;-89
